createdAt,value
2018-11-12T00:01:24.269Z,88.24
2018-11-12T00:03:52.697Z,88.21
2018-11-12T00:06:21.070Z,88.36
2018-11-12T00:08:49.462Z,87.89
2018-11-12T00:11:17.835Z,88.76
2018-11-12T00:13:46.229Z,88.25
2018-11-12T00:16:14.593Z,88.59
2018-11-12T00:18:42.986Z,88.30
2018-11-12T00:21:11.351Z,88.00
2018-11-12T00:23:39.747Z,88.88
2018-11-12T00:26:08.174Z,89.26
2018-11-12T00:28:36.574Z,88.65
2018-11-12T00:31:04.963Z,88.83
2018-11-12T00:33:33.363Z,89.35
2018-11-12T00:36:01.741Z,89.42
2018-11-12T00:38:30.136Z,89.54
2018-11-12T00:40:58.510Z,89.30
2018-11-12T00:43:27.013Z,89.53
2018-11-12T00:45:55.454Z,89.60
2018-11-12T00:48:23.845Z,88.85
2018-11-12T00:50:52.370Z,88.95
2018-11-12T00:53:20.760Z,89.41
2018-11-12T00:55:49.146Z,89.33
2018-11-12T00:58:17.542Z,89.25
2018-11-12T01:00:45.910Z,89.12
2018-11-12T01:03:14.320Z,89.22
2018-11-12T01:05:42.692Z,89.11
2018-11-12T01:08:11.117Z,89.54
2018-11-12T01:10:39.494Z,88.70
2018-11-12T01:13:07.910Z,89.33
2018-11-12T01:15:36.277Z,89.07
2018-11-12T01:18:04.694Z,88.80
2018-11-12T01:20:33.090Z,89.56
2018-11-12T01:23:01.465Z,89.75
2018-11-12T01:25:29.865Z,89.15
2018-11-12T01:27:58.242Z,89.71
2018-11-12T01:30:26.642Z,89.44
2018-11-12T01:32:55.019Z,89.03
2018-11-12T01:35:23.417Z,89.29
2018-11-12T01:37:51.795Z,89.13
2018-11-12T01:40:20.188Z,89.44
2018-11-12T01:42:48.582Z,89.56
2018-11-12T01:45:18.186Z,88.89
2018-11-12T01:47:47.666Z,89.41
2018-11-12T01:50:16.583Z,88.85
2018-11-12T01:52:45.546Z,88.75
2018-11-12T01:55:15.074Z,89.59
2018-11-12T01:57:43.942Z,88.96
2018-11-12T02:00:15.583Z,88.68
2018-11-12T02:02:45.422Z,88.79
2018-11-12T02:05:13.819Z,89.46
2018-11-12T02:07:42.203Z,89.43
2018-11-12T02:10:12.214Z,89.55
2018-11-12T02:12:40.986Z,88.90
2018-11-12T02:15:13.650Z,88.31
2018-11-12T02:17:42.661Z,89.30
2018-11-12T02:20:12.694Z,88.55
2018-11-12T02:22:41.566Z,88.22
2018-11-12T02:25:10.957Z,88.46
2018-11-12T02:27:39.569Z,88.39
2018-11-12T02:30:12.765Z,89.63
2018-11-12T02:32:41.145Z,88.39
2018-11-12T02:35:09.935Z,88.51
2018-11-12T02:37:38.797Z,88.18
2018-11-12T02:40:09.151Z,88.30
2018-11-12T02:42:37.545Z,88.16
2018-11-12T02:45:06.878Z,88.51
2018-11-12T02:47:35.265Z,89.11
2018-11-12T02:50:03.704Z,89.08
2018-11-12T02:52:32.086Z,89.29
2018-11-12T02:55:00.481Z,88.95
2018-11-12T02:57:28.947Z,89.49
2018-11-12T02:59:57.299Z,89.45
2018-11-12T03:02:25.677Z,89.56
2018-11-12T03:04:54.078Z,89.26
2018-11-12T03:07:22.467Z,89.54
2018-11-12T03:09:50.869Z,89.81
2018-11-12T03:12:19.242Z,89.20
2018-11-12T03:14:47.637Z,89.90
2018-11-12T03:17:16.020Z,89.38
2018-11-12T03:19:44.421Z,89.70
2018-11-12T03:22:12.796Z,89.79
2018-11-12T03:24:41.206Z,89.38
2018-11-12T03:27:09.577Z,89.89
2018-11-12T03:29:37.978Z,89.41
2018-11-12T03:32:06.558Z,89.77
2018-11-12T03:34:34.972Z,90.06
2018-11-12T03:37:03.341Z,90.36
2018-11-12T03:39:31.752Z,90.54
2018-11-12T03:42:00.157Z,90.54
2018-11-12T03:44:28.530Z,90.41
2018-11-12T03:46:57.042Z,89.97
2018-11-12T03:49:25.417Z,90.22
2018-11-12T03:51:53.813Z,90.20
2018-11-12T03:54:22.193Z,90.30
2018-11-12T03:56:50.597Z,89.36
2018-11-12T03:59:18.965Z,89.45
2018-11-12T04:01:47.369Z,89.15
2018-11-12T04:04:17.110Z,89.31
2018-11-12T04:06:46.433Z,89.27
2018-11-12T04:09:14.809Z,89.22
2018-11-12T04:11:44.531Z,90.05
2018-11-12T04:14:13.389Z,90.15
2018-11-12T04:16:43.942Z,89.35
2018-11-12T04:19:12.394Z,89.92
2018-11-12T04:21:40.813Z,89.46
2018-11-12T04:24:09.194Z,89.47
2018-11-12T04:26:37.589Z,90.05
2018-11-12T04:29:06.006Z,89.66
2018-11-12T04:31:34.403Z,90.07
2018-11-12T04:34:02.788Z,90.38
2018-11-12T04:36:31.186Z,89.21
2018-11-12T04:38:59.566Z,89.34
2018-11-12T04:41:27.989Z,89.42
2018-11-12T04:43:56.367Z,89.48
2018-11-12T04:46:24.771Z,89.54
2018-11-12T04:48:53.137Z,89.38
2018-11-12T04:51:21.541Z,89.24
2018-11-12T04:53:49.977Z,89.06
2018-11-12T04:56:18.351Z,89.15
2018-11-12T04:58:46.730Z,88.82
2018-11-12T05:01:15.149Z,88.90
2018-11-12T05:03:43.517Z,88.66
2018-11-12T05:06:11.914Z,88.37
2018-11-12T05:08:40.291Z,88.75
2018-11-12T05:11:08.733Z,88.31
2018-11-12T05:13:37.127Z,88.29
2018-11-12T05:16:06.026Z,88.79
2018-11-12T05:18:34.463Z,88.10
2018-11-12T05:21:02.919Z,88.00
2018-11-12T05:23:31.266Z,87.98
2018-11-12T05:25:59.671Z,88.64
2018-11-12T05:28:28.046Z,88.42
2018-11-12T05:30:56.592Z,88.11
2018-11-12T05:33:24.977Z,88.09
2018-11-12T05:35:53.407Z,87.75
2018-11-12T05:38:21.852Z,88.40
2018-11-12T05:40:50.185Z,87.97
2018-11-12T05:43:18.605Z,88.72
2018-11-12T05:45:46.986Z,87.99
2018-11-12T05:48:15.385Z,88.69
2018-11-12T05:50:43.764Z,88.51
2018-11-12T05:53:12.158Z,87.92
2018-11-12T05:55:40.536Z,88.58
2018-11-12T05:58:08.934Z,88.46
2018-11-12T06:00:37.950Z,88.52
2018-11-12T06:03:06.554Z,88.50
2018-11-12T06:05:35.385Z,87.87
2018-11-12T06:08:03.999Z,87.94
2018-11-12T06:10:33.173Z,88.68
2018-11-12T06:13:01.574Z,87.84
2018-11-12T06:15:30.020Z,87.70
2018-11-12T06:17:58.409Z,88.11
2018-11-12T06:20:28.837Z,87.73
2018-11-12T06:22:57.262Z,88.63
2018-11-12T06:25:27.817Z,87.98
2018-11-12T06:27:56.354Z,88.50
2018-11-12T06:30:27.373Z,87.88
2018-11-12T06:32:55.770Z,88.57
2018-11-12T06:35:24.157Z,88.65
2018-11-12T06:37:53.161Z,88.69
2018-11-12T06:40:22.642Z,88.75
2018-11-12T06:42:51.349Z,88.46
2018-11-12T06:45:23.045Z,89.19
2018-11-12T06:47:52.307Z,88.46
2018-11-12T06:50:22.090Z,89.40
2018-11-12T06:52:50.631Z,89.16
2018-11-12T06:55:19.573Z,89.30
2018-11-12T06:57:48.491Z,88.69
2018-11-12T07:00:19.221Z,88.59
2018-11-12T07:02:47.618Z,89.30
2018-11-12T07:05:16.262Z,88.42
2018-11-12T07:07:44.678Z,88.88
2018-11-12T07:10:14.553Z,88.73
2018-11-12T07:12:43.826Z,89.02
2018-11-12T07:15:16.751Z,88.69
2018-11-12T07:17:45.245Z,88.16
2018-11-12T07:20:15.034Z,89.15
2018-11-12T07:22:43.654Z,88.69
2018-11-12T07:25:12.982Z,88.83
2018-11-12T07:27:41.352Z,87.87
2018-11-12T07:30:13.058Z,88.11
2018-11-12T07:32:41.455Z,88.30
2018-11-12T07:35:11.467Z,88.91
2018-11-12T07:37:40.079Z,88.08
2018-11-12T07:40:09.331Z,87.71
2018-11-12T07:42:38.257Z,88.35
2018-11-12T07:45:08.307Z,87.82
2018-11-12T07:47:36.861Z,88.16
2018-11-12T07:50:07.711Z,87.56
2018-11-12T07:52:36.351Z,88.51
2018-11-12T07:55:05.701Z,87.66
2018-11-12T07:57:34.123Z,87.80
2018-11-12T08:00:02.513Z,88.22
2018-11-12T08:02:30.924Z,88.14
2018-11-12T08:04:59.327Z,87.82
2018-11-12T08:07:27.710Z,87.95
2018-11-12T08:09:56.106Z,87.84
2018-11-12T08:12:24.477Z,87.30
2018-11-12T08:14:52.906Z,87.57
2018-11-12T08:17:21.285Z,87.30
2018-11-12T08:19:49.701Z,87.09
2018-11-12T08:22:18.079Z,87.45
2018-11-12T08:24:46.515Z,87.25
2018-11-12T08:27:14.915Z,87.46
2018-11-12T08:29:43.361Z,87.61
2018-11-12T08:32:11.719Z,87.54
2018-11-12T08:34:40.118Z,87.55
2018-11-12T08:37:08.508Z,87.56
2018-11-12T08:39:37.072Z,87.40
2018-11-12T08:42:05.522Z,87.56
2018-11-12T08:44:33.917Z,87.42
2018-11-12T08:47:02.290Z,87.32
2018-11-12T08:49:30.772Z,86.80
2018-11-12T08:51:59.120Z,87.68
2018-11-12T08:54:27.558Z,87.81
2018-11-12T08:56:55.922Z,87.69
2018-11-12T08:59:24.408Z,87.58
2018-11-12T09:01:52.759Z,87.48
2018-11-12T09:04:21.162Z,87.41
2018-11-12T09:06:49.562Z,87.37
2018-11-12T09:09:18.016Z,87.38
2018-11-12T09:11:46.388Z,87.09
2018-11-12T09:14:14.789Z,86.39
2018-11-12T09:16:43.170Z,86.66
2018-11-12T09:19:11.566Z,87.19
2018-11-12T09:21:39.937Z,86.73
2018-11-12T09:24:08.333Z,86.47
2018-11-12T09:26:36.735Z,87.18
2018-11-12T09:29:05.261Z,87.07
2018-11-12T09:31:33.777Z,87.08
2018-11-12T09:34:02.076Z,86.43
2018-11-12T09:36:30.460Z,86.98
2018-11-12T09:41:27.264Z,86.84
2018-11-12T09:43:55.675Z,86.16
2018-11-12T09:46:24.058Z,85.63
2018-11-12T09:48:52.528Z,85.85
2018-11-12T09:51:21.450Z,85.38
2018-11-12T09:53:49.961Z,86.43
2018-11-12T09:56:18.299Z,85.33
2018-11-12T09:58:46.698Z,86.07
2018-11-12T10:01:15.237Z,85.75
2018-11-12T10:03:44.888Z,85.23
2018-11-12T10:06:13.448Z,85.29
2018-11-12T10:08:42.685Z,85.48
2018-11-12T10:11:11.320Z,85.22
2018-11-12T10:13:40.035Z,84.98
2018-11-12T10:16:09.021Z,84.83
2018-11-12T10:18:34.485Z,84.69
2018-11-12T10:21:02.910Z,84.44
2018-11-12T10:23:31.287Z,85.24
2018-11-12T10:25:59.677Z,84.57
2018-11-12T10:28:28.041Z,85.16
2018-11-12T10:30:56.443Z,84.90
2018-11-12T10:33:24.805Z,84.99
2018-11-12T10:35:53.197Z,84.62
2018-11-12T10:38:21.590Z,84.67
2018-11-12T10:40:50.051Z,84.45
2018-11-12T10:43:18.443Z,84.02
2018-11-12T10:45:46.849Z,83.02
2018-11-12T10:48:15.237Z,83.79
2018-11-12T10:50:43.645Z,84.05
2018-11-12T10:53:12.017Z,83.44
2018-11-12T10:55:40.466Z,83.86
2018-11-12T10:58:08.830Z,83.68
2018-11-12T11:00:42.432Z,84.17
2018-11-12T11:04:19.384Z,84.22
2018-11-12T11:06:47.791Z,84.06
2018-11-12T11:09:16.166Z,84.68
2018-11-12T11:11:44.611Z,84.34
2018-11-12T11:14:13.011Z,85.05
2018-11-12T11:16:41.414Z,84.84
2018-11-12T11:19:09.793Z,83.82
2018-11-12T11:21:38.512Z,85.09
2018-11-12T11:24:06.897Z,84.16
2018-11-12T11:26:35.312Z,84.82
2018-11-12T11:29:03.698Z,84.89
2018-11-12T11:31:32.094Z,84.60
2018-11-12T11:34:00.473Z,83.97
2018-11-12T11:36:28.883Z,83.89
2018-11-12T11:38:57.279Z,84.29
2018-11-12T11:41:25.707Z,83.68
2018-11-12T11:43:54.113Z,84.27
2018-11-12T11:46:22.518Z,83.67
2018-11-12T11:48:51.191Z,84.06
2018-11-12T11:51:19.611Z,84.02
2018-11-12T11:53:47.995Z,83.99
2018-11-12T11:56:16.503Z,84.33
2018-11-12T11:58:44.914Z,83.75
2018-11-12T12:01:13.316Z,83.42
2018-11-12T12:03:41.689Z,82.97
2018-11-12T12:06:10.093Z,83.14
2018-11-12T12:08:38.527Z,82.24
2018-11-12T12:11:06.915Z,82.77
2018-11-12T12:13:35.301Z,81.81
2018-11-12T12:16:03.693Z,82.25
2018-11-12T12:18:32.110Z,82.09
2018-11-12T12:21:00.539Z,81.59
2018-11-12T12:23:28.893Z,81.74
2018-11-12T12:25:57.348Z,81.45
2018-11-12T12:28:25.697Z,80.86
2018-11-12T12:30:54.094Z,80.88
2018-11-12T12:33:22.506Z,80.11
2018-11-12T12:35:50.987Z,80.05
2018-11-12T12:38:19.299Z,80.42
2018-11-12T12:40:47.694Z,79.69
2018-11-12T12:43:16.089Z,79.84
2018-11-12T12:45:44.694Z,80.49
2018-11-12T12:48:12.974Z,79.59
2018-11-12T12:50:41.373Z,79.00
2018-11-12T12:53:09.766Z,78.71
2018-11-12T12:55:38.759Z,77.85
2018-11-12T12:58:07.138Z,78.54
2018-11-12T13:00:35.513Z,77.89
2018-11-12T13:03:03.914Z,78.47
2018-11-12T13:05:32.283Z,77.15
2018-11-12T13:08:00.708Z,77.52
2018-11-12T13:10:29.082Z,77.43
2018-11-12T13:12:57.492Z,76.54
2018-11-12T13:15:25.980Z,76.44
2018-11-12T13:17:54.379Z,76.27
2018-11-12T13:20:24.143Z,76.52
2018-11-12T13:22:52.514Z,75.49
2018-11-12T13:25:20.889Z,75.90
2018-11-12T13:27:49.550Z,75.36
2018-11-12T13:30:19.347Z,75.35
2018-11-12T13:32:48.059Z,75.09
2018-11-12T13:35:18.169Z,75.03
2018-11-12T13:37:46.571Z,75.09
2018-11-12T13:40:17.627Z,75.07
2018-11-12T13:42:49.658Z,75.41
2018-11-12T13:45:18.066Z,75.38
2018-11-12T13:47:46.829Z,74.79
2018-11-12T13:50:16.709Z,74.70
2018-11-12T13:52:45.482Z,74.93
2018-11-12T13:55:14.809Z,74.75
2018-11-12T13:57:43.226Z,74.37
2018-11-12T14:00:13.869Z,74.50
2018-11-12T14:02:43.046Z,74.75
2018-11-12T14:05:13.445Z,73.82
2018-11-12T14:07:42.362Z,74.31
2018-11-12T14:10:12.354Z,73.68
2018-11-12T14:12:41.275Z,73.54
2018-11-12T14:15:11.995Z,73.62
2018-11-12T14:17:40.897Z,73.24
2018-11-12T14:20:09.297Z,73.70
2018-11-12T14:22:38.287Z,72.40
2018-11-12T14:25:07.793Z,73.22
2018-11-12T14:27:36.233Z,72.41
2018-11-12T14:30:04.644Z,72.54
2018-11-12T14:32:33.430Z,72.42
2018-11-12T14:35:01.807Z,72.82
2018-11-12T14:37:30.210Z,72.50
2018-11-12T14:39:58.587Z,73.29
2018-11-12T14:42:27.015Z,73.36
2018-11-12T14:44:56.038Z,73.16
2018-11-12T14:47:24.429Z,73.66
2018-11-12T14:49:52.811Z,72.94
2018-11-12T14:52:21.396Z,73.39
2018-11-12T14:54:49.830Z,73.65
2018-11-12T14:57:18.201Z,73.43
2018-11-12T14:59:46.623Z,73.34
2018-11-12T15:02:15.076Z,72.96
2018-11-12T15:04:43.455Z,73.29
2018-11-12T15:07:11.830Z,72.91
2018-11-12T15:09:40.239Z,72.74
2018-11-12T15:12:08.609Z,73.17
2018-11-12T15:14:37.051Z,72.77
2018-11-12T15:17:05.458Z,72.76
2018-11-12T15:19:33.880Z,72.83
2018-11-12T15:22:02.437Z,72.52
2018-11-12T15:24:30.838Z,72.34
2018-11-12T15:26:59.218Z,72.69
2018-11-12T15:29:27.729Z,72.92
2018-11-12T15:31:56.041Z,72.96
2018-11-12T15:34:24.438Z,73.27
2018-11-12T15:36:52.960Z,73.01
2018-11-12T15:39:21.258Z,73.41
2018-11-12T15:41:49.655Z,72.96
2018-11-12T15:44:18.044Z,72.78
2018-11-12T15:46:46.487Z,73.22
2018-11-12T15:49:14.907Z,72.76
2018-11-12T15:51:43.285Z,73.19
2018-11-12T15:54:11.698Z,73.00
2018-11-12T15:56:40.078Z,73.44
2018-11-12T15:59:08.469Z,72.86
2018-11-12T16:01:36.847Z,73.26
2018-11-12T16:04:05.454Z,73.42
2018-11-12T16:06:33.899Z,73.45
2018-11-12T16:09:02.261Z,73.56
2018-11-12T16:11:30.636Z,73.23
2018-11-12T16:13:59.033Z,73.67
2018-11-12T16:16:27.414Z,73.71
2018-11-12T16:18:55.827Z,73.11
2018-11-12T16:21:24.202Z,73.11
2018-11-12T16:23:52.594Z,73.43
2018-11-12T16:26:21.015Z,73.46
2018-11-12T16:28:49.395Z,73.13
2018-11-12T16:31:17.794Z,73.24
2018-11-12T16:33:46.170Z,73.44
2018-11-12T16:36:14.563Z,74.45
2018-11-12T16:38:42.958Z,74.16
2018-11-12T16:41:11.371Z,74.44
2018-11-12T16:43:39.767Z,74.62
2018-11-12T16:46:08.262Z,74.27
2018-11-12T16:48:36.575Z,74.00
2018-11-12T16:51:04.983Z,74.62
2018-11-12T16:53:33.366Z,74.43
2018-11-12T16:56:01.767Z,74.85
2018-11-12T16:58:30.150Z,74.18
2018-11-12T17:00:58.555Z,74.00
2018-11-12T17:03:26.935Z,74.39
2018-11-12T17:05:55.333Z,75.03
2018-11-12T17:08:23.766Z,74.43
2018-11-12T17:10:52.166Z,75.20
2018-11-12T17:13:20.542Z,74.83
2018-11-12T17:15:48.942Z,75.31
2018-11-12T17:18:17.418Z,74.82
2018-11-12T17:20:45.825Z,74.96
2018-11-12T17:23:14.277Z,75.21
2018-11-12T17:25:42.678Z,75.71
2018-11-12T17:28:11.070Z,75.51
2018-11-12T17:30:39.464Z,76.20
2018-11-12T17:33:07.868Z,76.04
2018-11-12T17:35:36.271Z,76.30
2018-11-12T17:38:04.913Z,76.45
2018-11-12T17:40:33.323Z,76.58
2018-11-12T17:43:01.773Z,76.20
2018-11-12T17:45:30.159Z,76.07
2018-11-12T17:47:59.099Z,75.92
2018-11-12T17:50:27.527Z,76.47
2018-11-12T17:52:55.918Z,76.00
2018-11-12T17:55:24.360Z,76.55
2018-11-12T17:57:52.719Z,76.44
2018-11-12T18:00:23.270Z,76.06
2018-11-12T18:02:51.685Z,75.85
2018-11-12T18:05:20.100Z,76.48
2018-11-12T18:07:48.645Z,76.28
2018-11-12T18:10:17.778Z,76.30
2018-11-12T18:12:46.258Z,76.08
2018-11-12T18:15:16.066Z,76.29
2018-11-12T18:17:44.462Z,75.59
2018-11-12T18:20:16.531Z,76.21
2018-11-12T18:22:44.959Z,75.49
2018-11-12T18:25:13.757Z,75.88
2018-11-12T18:27:42.149Z,76.16
2018-11-12T18:30:14.253Z,75.92
2018-11-12T18:32:42.946Z,75.72
2018-11-12T18:35:11.446Z,76.05
2018-11-12T18:37:39.851Z,76.13
2018-11-12T18:40:10.221Z,75.57
2018-11-12T18:42:38.674Z,76.08
2018-11-12T18:45:09.444Z,75.90
2018-11-12T18:47:38.030Z,76.06
2018-11-12T18:50:08.486Z,75.70
2018-11-12T18:52:36.963Z,76.04
2018-11-12T18:55:06.622Z,75.56
2018-11-12T18:57:35.096Z,76.10
2018-11-12T19:00:04.010Z,76.10
2018-11-12T19:02:32.424Z,76.09
2018-11-12T19:05:00.853Z,75.26
2018-11-12T19:07:29.291Z,75.94
2018-11-12T19:09:57.701Z,75.18
2018-11-12T19:12:26.253Z,76.14
2018-11-12T19:14:54.674Z,75.52
2018-11-12T19:17:23.093Z,75.88
2018-11-12T19:19:51.474Z,75.53
2018-11-12T19:24:48.013Z,75.43
2018-11-12T19:27:16.561Z,75.52
2018-11-12T19:29:44.911Z,75.45
2018-11-12T19:32:13.332Z,75.23
2018-11-12T19:34:41.716Z,75.82
2018-11-12T19:37:10.159Z,75.45
2018-11-12T19:39:38.530Z,75.60
2018-11-12T19:42:06.954Z,75.99
2018-11-12T19:44:35.347Z,75.64
2018-11-12T19:47:03.745Z,76.08
2018-11-12T19:49:32.128Z,75.37
2018-11-12T19:52:00.531Z,75.44
2018-11-12T19:54:28.938Z,75.78
2018-11-12T19:56:57.371Z,75.01
2018-11-12T19:59:25.746Z,75.67
2018-11-12T20:01:54.326Z,75.60
2018-11-12T20:04:22.731Z,75.08
2018-11-12T20:06:51.121Z,75.66
2018-11-12T20:09:19.682Z,75.60
2018-11-12T20:11:48.062Z,74.94
2018-11-12T20:14:16.553Z,74.84
2018-11-12T20:16:44.942Z,74.64
2018-11-12T20:19:13.505Z,75.10
2018-11-12T20:21:41.903Z,74.91
2018-11-12T20:24:10.313Z,75.39
2018-11-12T20:26:38.700Z,74.91
2018-11-12T20:29:07.125Z,75.11
2018-11-12T20:31:35.497Z,74.81
2018-11-12T20:34:03.947Z,74.43
2018-11-12T20:36:32.358Z,74.42
2018-11-12T20:39:00.820Z,75.02
2018-11-12T20:41:29.182Z,74.93
2018-11-12T20:43:57.618Z,74.37
2018-11-12T20:46:25.994Z,74.42
2018-11-12T20:48:54.434Z,74.90
2018-11-12T20:51:22.811Z,75.19
2018-11-12T20:53:51.230Z,75.01
2018-11-12T20:56:19.598Z,74.89
2018-11-12T20:58:48.019Z,74.53
2018-11-12T21:01:16.461Z,74.18
2018-11-12T21:03:44.862Z,74.39
2018-11-12T21:06:13.295Z,74.67
2018-11-12T21:08:41.702Z,74.74
2018-11-12T21:11:10.082Z,74.85
2018-11-12T21:13:38.482Z,75.49
2018-11-12T21:16:06.875Z,74.91
2018-11-12T21:18:35.298Z,74.99
2018-11-12T21:21:03.666Z,75.46
2018-11-12T21:23:32.054Z,75.20
2018-11-12T21:26:00.461Z,76.20
2018-11-12T21:28:28.830Z,76.20
2018-11-12T21:30:57.338Z,75.87
2018-11-12T21:33:25.719Z,76.70
2018-11-12T21:35:54.123Z,76.51
2018-11-12T21:38:22.514Z,76.54
2018-11-12T21:40:50.913Z,76.22
2018-11-12T21:43:19.492Z,75.94
2018-11-12T21:45:47.743Z,76.83
2018-11-12T21:48:16.128Z,76.73
2018-11-12T21:50:44.557Z,76.54
2018-11-12T21:53:12.931Z,76.59
2018-11-12T21:55:41.504Z,76.90
2018-11-12T21:58:09.886Z,76.64
2018-11-12T22:00:38.298Z,76.76
2018-11-12T22:03:06.706Z,76.52
2018-11-12T22:05:35.153Z,77.21
2018-11-12T22:08:04.342Z,77.30
2018-11-12T22:10:32.800Z,76.81
2018-11-12T22:13:01.173Z,76.86
2018-11-12T22:15:29.571Z,77.53
2018-11-12T22:17:57.949Z,77.54
2018-11-12T22:20:27.586Z,76.75
2018-11-12T22:22:55.954Z,77.25
2018-11-12T22:25:24.655Z,77.04
2018-11-12T22:27:53.585Z,76.77
2018-11-12T22:30:23.152Z,76.83
2018-11-12T22:32:52.430Z,76.73
2018-11-12T22:35:20.829Z,76.87
2018-11-12T22:37:49.489Z,77.41
2018-11-12T22:40:18.623Z,76.90
2018-11-12T22:42:48.306Z,76.85
2018-11-12T22:45:17.930Z,76.68
2018-11-12T22:47:46.907Z,77.30
2018-11-12T22:50:15.322Z,76.87
2018-11-12T22:52:44.373Z,76.83
2018-11-12T22:55:14.009Z,76.55
2018-11-12T22:57:42.379Z,76.49
2018-11-12T23:00:19.411Z,77.19
2018-11-12T23:02:48.444Z,76.59
2018-11-12T23:05:17.462Z,76.99
2018-11-12T23:07:46.737Z,76.86
2018-11-12T23:10:15.655Z,76.61
2018-11-12T23:12:44.152Z,76.51
2018-11-12T23:15:13.063Z,76.21
2018-11-12T23:17:41.590Z,76.37
2018-11-12T23:20:12.961Z,77.09
2018-11-12T23:22:42.134Z,76.42
2018-11-12T23:25:10.954Z,76.62
2018-11-12T23:27:39.717Z,77.16
2018-11-12T23:30:10.055Z,76.51
2018-11-12T23:32:38.437Z,76.87
2018-11-12T23:35:08.885Z,76.73
2018-11-12T23:37:37.283Z,76.36
2018-11-12T23:40:06.525Z,76.57
2018-11-12T23:42:34.937Z,76.73
2018-11-12T23:45:03.322Z,76.70
2018-11-12T23:47:31.732Z,77.51
2018-11-12T23:50:00.102Z,77.72
2018-11-12T23:52:28.493Z,77.79
2018-11-12T23:54:57.068Z,77.60
2018-11-12T23:57:25.517Z,77.82
2018-11-12T23:59:54.046Z,77.44
